Terminal Aerodrome Forecast
Issued by NWS Hastings, NE

Home | Current Version | Previous Version | Text Only | Print | Product List | Glossary On
Versions: 1 2 3 4 5 6 7 8 9 10 11 12 13 14 15 16 17 18 19 20 21 22 23 24 25
000
FTUS43 KGID 250533
TAFGRI
TAF
KGRI 250533Z 2506/2606 12015G20KT P6SM OVC120
     FM250800 27015G25KT P6SM VCTS OVC050CB
     FM251200 13007KT P6SM VCSH SCT050 BKN080
     FM251400 15008KT P6SM BKN080
     FM252100 22008KT P6SM SCT040
     FM260200 VRB06KT P6SM SCT080=

USA.gov is the U.S. government's official web portal to all federal, state and local government web resources and services.